sensor_id;sensor_type;location;lat;lon;timestamp;P1;durP1;ratioP1;P2;durP2;ratioP2
20713;SDS011;10518;50.742;4.226;2023-04-15T00:01:29;3.83;;;1.70;;
20713;SDS011;10518;50.742;4.226;2023-04-15T00:03:58;3.53;;;2.00;;
20713;SDS011;10518;50.742;4.226;2023-04-15T00:06:23;5.60;;;1.90;;
20713;SDS011;10518;50.742;4.226;2023-04-15T00:08:49;2.33;;;1.80;;
20713;SDS011;10518;50.742;4.226;2023-04-15T00:11:15;2.50;;;1.63;;
20713;SDS011;10518;50.742;4.226;2023-04-15T00:13:41;3.73;;;1.50;;
20713;SDS011;10518;50.742;4.226;2023-04-15T00:16:07;5.47;;;2.20;;
20713;SDS011;10518;50.742;4.226;2023-04-15T00:18:34;2.40;;;1.70;;
20713;SDS011;10518;50.742;4.226;2023-04-15T00:21:00;3.03;;;1.63;;
20713;SDS011;10518;50.742;4.226;2023-04-15T00:23:26;4.50;;;2.40;;
20713;SDS011;10518;50.742;4.226;2023-04-15T00:25:52;3.10;;;1.93;;
20713;SDS011;10518;50.742;4.226;2023-04-15T00:28:18;4.63;;;2.10;;
20713;SDS011;10518;50.742;4.226;2023-04-15T00:30:44;2.60;;;1.77;;
20713;SDS011;10518;50.742;4.226;2023-04-15T00:33:10;4.67;;;1.97;;
20713;SDS011;10518;50.742;4.226;2023-04-15T00:35:36;3.50;;;1.97;;
20713;SDS011;10518;50.742;4.226;2023-04-15T00:38:03;2.93;;;1.67;;
20713;SDS011;10518;50.742;4.226;2023-04-15T00:40:29;2.73;;;2.20;;
20713;SDS011;10518;50.742;4.226;2023-04-15T00:42:55;3.30;;;1.63;;
20713;SDS011;10518;50.742;4.226;2023-04-15T00:45:21;3.33;;;1.93;;
20713;SDS011;10518;50.742;4.226;2023-04-15T00:47:47;2.80;;;1.83;;
20713;SDS011;10518;50.742;4.226;2023-04-15T00:50:13;2.00;;;1.63;;
20713;SDS011;10518;50.742;4.226;2023-04-15T00:52:38;3.47;;;1.57;;
20713;SDS011;10518;50.742;4.226;2023-04-15T00:55:05;3.07;;;1.80;;
20713;SDS011;10518;50.742;4.226;2023-04-15T00:57:31;1.60;;;1.43;;
20713;SDS011;10518;50.742;4.226;2023-04-15T00:59:57;3.70;;;1.60;;
20713;SDS011;10518;50.742;4.226;2023-04-15T01:02:24;3.40;;;1.83;;
20713;SDS011;10518;50.742;4.226;2023-04-15T01:04:49;4.37;;;2.00;;
20713;SDS011;10518;50.742;4.226;2023-04-15T01:07:15;6.43;;;2.00;;
20713;SDS011;10518;50.742;4.226;2023-04-15T01:09:41;4.30;;;1.83;;
20713;SDS011;10518;50.742;4.226;2023-04-15T01:12:07;1.93;;;1.60;;
20713;SDS011;10518;50.742;4.226;2023-04-15T01:14:35;5.70;;;2.23;;
20713;SDS011;10518;50.742;4.226;2023-04-15T01:17:01;1.80;;;1.67;;
20713;SDS011;10518;50.742;4.226;2023-04-15T01:19:27;5.13;;;2.07;;
20713;SDS011;10518;50.742;4.226;2023-04-15T01:21:53;4.43;;;2.33;;
20713;SDS011;10518;50.742;4.226;2023-04-15T01:24:19;3.90;;;1.93;;
20713;SDS011;10518;50.742;4.226;2023-04-15T01:26:45;3.13;;;2.03;;
20713;SDS011;10518;50.742;4.226;2023-04-15T01:29:11;6.40;;;2.70;;
20713;SDS011;10518;50.742;4.226;2023-04-15T01:31:37;3.30;;;1.87;;
20713;SDS011;10518;50.742;4.226;2023-04-15T01:34:03;2.40;;;1.80;;
20713;SDS011;10518;50.742;4.226;2023-04-15T01:36:28;3.63;;;1.83;;
20713;SDS011;10518;50.742;4.226;2023-04-15T01:38:55;3.23;;;2.20;;
20713;SDS011;10518;50.742;4.226;2023-04-15T01:41:27;2.77;;;1.67;;
20713;SDS011;10518;50.742;4.226;2023-04-15T01:43:53;3.37;;;2.07;;
20713;SDS011;10518;50.742;4.226;2023-04-15T01:46:19;2.53;;;1.73;;
20713;SDS011;10518;50.742;4.226;2023-04-15T01:48:45;2.37;;;1.73;;
20713;SDS011;10518;50.742;4.226;2023-04-15T01:51:11;4.97;;;2.57;;
20713;SDS011;10518;50.742;4.226;2023-04-15T01:53:36;2.73;;;1.97;;
20713;SDS011;10518;50.742;4.226;2023-04-15T01:56:02;3.83;;;2.07;;
20713;SDS011;10518;50.742;4.226;2023-04-15T01:58:28;4.60;;;2.13;;
20713;SDS011;10518;50.742;4.226;2023-04-15T02:00:55;2.30;;;2.10;;
20713;SDS011;10518;50.742;4.226;2023-04-15T02:03:21;1.67;;;1.57;;
20713;SDS011;10518;50.742;4.226;2023-04-15T02:05:47;3.87;;;2.13;;
20713;SDS011;10518;50.742;4.226;2023-04-15T02:08:13;3.63;;;1.73;;
20713;SDS011;10518;50.742;4.226;2023-04-15T02:10:38;2.70;;;1.97;;
20713;SDS011;10518;50.742;4.226;2023-04-15T02:13:04;3.47;;;1.93;;
20713;SDS011;10518;50.742;4.226;2023-04-15T02:15:29;4.53;;;2.40;;
20713;SDS011;10518;50.742;4.226;2023-04-15T02:17:55;3.40;;;2.20;;
20713;SDS011;10518;50.742;4.226;2023-04-15T02:20:23;4.00;;;2.20;;
20713;SDS011;10518;50.742;4.226;2023-04-15T02:22:48;2.80;;;1.87;;
20713;SDS011;10518;50.742;4.226;2023-04-15T02:25:14;3.00;;;1.93;;
20713;SDS011;10518;50.742;4.226;2023-04-15T02:27:41;3.03;;;2.50;;
20713;SDS011;10518;50.742;4.226;2023-04-15T02:30:07;2.27;;;1.50;;
20713;SDS011;10518;50.742;4.226;2023-04-15T02:32:33;2.83;;;1.90;;
20713;SDS011;10518;50.742;4.226;2023-04-15T02:35:04;5.03;;;2.43;;
20713;SDS011;10518;50.742;4.226;2023-04-15T02:37:34;6.50;;;2.10;;
20713;SDS011;10518;50.742;4.226;2023-04-15T02:40:06;5.60;;;2.77;;
20713;SDS011;10518;50.742;4.226;2023-04-15T02:42:34;3.03;;;2.00;;
20713;SDS011;10518;50.742;4.226;2023-04-15T02:45:00;3.47;;;1.90;;
20713;SDS011;10518;50.742;4.226;2023-04-15T02:47:25;2.73;;;1.80;;
20713;SDS011;10518;50.742;4.226;2023-04-15T02:49:51;3.17;;;1.87;;
20713;SDS011;10518;50.742;4.226;2023-04-15T02:52:17;3.20;;;2.20;;
20713;SDS011;10518;50.742;4.226;2023-04-15T02:54:42;3.17;;;2.30;;
20713;SDS011;10518;50.742;4.226;2023-04-15T02:57:08;3.80;;;1.90;;
20713;SDS011;10518;50.742;4.226;2023-04-15T02:59:35;1.67;;;1.30;;
20713;SDS011;10518;50.742;4.226;2023-04-15T03:02:01;3.10;;;1.50;;
20713;SDS011;10518;50.742;4.226;2023-04-15T03:04:26;3.83;;;1.80;;
20713;SDS011;10518;50.742;4.226;2023-04-15T03:06:54;4.07;;;1.90;;
20713;SDS011;10518;50.742;4.226;2023-04-15T03:09:20;2.37;;;1.90;;
20713;SDS011;10518;50.742;4.226;2023-04-15T03:11:46;2.07;;;1.43;;
20713;SDS011;10518;50.742;4.226;2023-04-15T03:14:11;2.13;;;1.60;;
20713;SDS011;10518;50.742;4.226;2023-04-15T03:16:37;2.87;;;1.60;;
20713;SDS011;10518;50.742;4.226;2023-04-15T03:19:02;2.57;;;1.27;;
20713;SDS011;10518;50.742;4.226;2023-04-15T03:21:28;2.07;;;1.10;;
20713;SDS011;10518;50.742;4.226;2023-04-15T03:23:53;1.60;;;1.37;;
20713;SDS011;10518;50.742;4.226;2023-04-15T03:26:29;1.23;;;1.13;;
20713;SDS011;10518;50.742;4.226;2023-04-15T03:28:55;3.23;;;1.43;;
20713;SDS011;10518;50.742;4.226;2023-04-15T03:31:21;1.43;;;1.23;;
20713;SDS011;10518;50.742;4.226;2023-04-15T03:33:47;2.30;;;1.20;;
20713;SDS011;10518;50.742;4.226;2023-04-15T03:36:13;1.97;;;1.30;;
20713;SDS011;10518;50.742;4.226;2023-04-15T03:38:38;1.57;;;1.40;;
20713;SDS011;10518;50.742;4.226;2023-04-15T03:41:04;1.97;;;1.60;;
20713;SDS011;10518;50.742;4.226;2023-04-15T03:43:30;2.67;;;1.63;;
20713;SDS011;10518;50.742;4.226;2023-04-15T03:45:56;2.53;;;1.70;;
20713;SDS011;10518;50.742;4.226;2023-04-15T03:48:21;8.20;;;2.10;;
20713;SDS011;10518;50.742;4.226;2023-04-15T03:50:47;5.70;;;2.03;;
20713;SDS011;10518;50.742;4.226;2023-04-15T03:53:12;3.33;;;1.97;;
20713;SDS011;10518;50.742;4.226;2023-04-15T03:55:38;2.90;;;2.03;;
20713;SDS011;10518;50.742;4.226;2023-04-15T03:58:04;4.33;;;2.43;;
20713;SDS011;10518;50.742;4.226;2023-04-15T04:00:29;5.40;;;2.67;;
20713;SDS011;10518;50.742;4.226;2023-04-15T04:02:55;5.80;;;2.30;;
20713;SDS011;10518;50.742;4.226;2023-04-15T04:05:21;5.33;;;3.00;;
20713;SDS011;10518;50.742;4.226;2023-04-15T04:07:46;5.77;;;2.33;;
20713;SDS011;10518;50.742;4.226;2023-04-15T04:10:12;6.33;;;2.80;;
20713;SDS011;10518;50.742;4.226;2023-04-15T04:12:37;5.60;;;2.80;;
20713;SDS011;10518;50.742;4.226;2023-04-15T04:15:03;4.63;;;3.00;;
20713;SDS011;10518;50.742;4.226;2023-04-15T04:17:29;7.20;;;3.27;;
20713;SDS011;10518;50.742;4.226;2023-04-15T04:19:55;6.20;;;2.97;;
20713;SDS011;10518;50.742;4.226;2023-04-15T04:22:23;6.10;;;2.93;;
20713;SDS011;10518;50.742;4.226;2023-04-15T04:24:49;12.50;;;3.30;;
20713;SDS011;10518;50.742;4.226;2023-04-15T04:27:15;6.77;;;3.00;;
20713;SDS011;10518;50.742;4.226;2023-04-15T04:29:40;8.47;;;3.63;;
20713;SDS011;10518;50.742;4.226;2023-04-15T04:32:06;5.77;;;3.00;;
20713;SDS011;10518;50.742;4.226;2023-04-15T04:34:32;5.00;;;2.50;;
20713;SDS011;10518;50.742;4.226;2023-04-15T04:36:57;5.40;;;3.23;;
20713;SDS011;10518;50.742;4.226;2023-04-15T04:39:23;4.87;;;3.20;;
20713;SDS011;10518;50.742;4.226;2023-04-15T04:41:49;5.83;;;3.63;;
20713;SDS011;10518;50.742;4.226;2023-04-15T04:44:16;5.47;;;2.93;;
20713;SDS011;10518;50.742;4.226;2023-04-15T04:46:42;4.60;;;3.23;;
20713;SDS011;10518;50.742;4.226;2023-04-15T04:49:07;7.03;;;3.47;;
20713;SDS011;10518;50.742;4.226;2023-04-15T04:51:33;6.10;;;3.37;;
20713;SDS011;10518;50.742;4.226;2023-04-15T04:53:59;9.70;;;3.83;;
20713;SDS011;10518;50.742;4.226;2023-04-15T04:56:24;5.87;;;3.57;;
20713;SDS011;10518;50.742;4.226;2023-04-15T04:58:50;5.23;;;3.20;;
20713;SDS011;10518;50.742;4.226;2023-04-15T05:01:15;4.83;;;3.50;;
20713;SDS011;10518;50.742;4.226;2023-04-15T05:03:41;4.20;;;3.07;;
20713;SDS011;10518;50.742;4.226;2023-04-15T05:06:07;8.27;;;3.37;;
20713;SDS011;10518;50.742;4.226;2023-04-15T05:08:33;4.57;;;3.13;;
20713;SDS011;10518;50.742;4.226;2023-04-15T05:10:58;5.03;;;3.73;;
20713;SDS011;10518;50.742;4.226;2023-04-15T05:13:24;10.23;;;4.40;;
20713;SDS011;10518;50.742;4.226;2023-04-15T05:15:50;6.13;;;3.70;;
20713;SDS011;10518;50.742;4.226;2023-04-15T05:18:15;4.77;;;3.13;;
20713;SDS011;10518;50.742;4.226;2023-04-15T05:20:41;4.03;;;3.03;;
20713;SDS011;10518;50.742;4.226;2023-04-15T05:23:06;5.57;;;3.00;;
20713;SDS011;10518;50.742;4.226;2023-04-15T05:25:32;7.47;;;3.57;;
20713;SDS011;10518;50.742;4.226;2023-04-15T05:27:58;6.10;;;3.27;;
20713;SDS011;10518;50.742;4.226;2023-04-15T05:30:24;6.47;;;3.53;;
20713;SDS011;10518;50.742;4.226;2023-04-15T05:32:50;4.47;;;2.93;;
20713;SDS011;10518;50.742;4.226;2023-04-15T05:35:15;8.67;;;3.40;;
20713;SDS011;10518;50.742;4.226;2023-04-15T05:37:41;7.33;;;3.97;;
20713;SDS011;10518;50.742;4.226;2023-04-15T05:40:07;5.57;;;3.60;;
20713;SDS011;10518;50.742;4.226;2023-04-15T05:42:34;6.47;;;3.70;;
20713;SDS011;10518;50.742;4.226;2023-04-15T05:45:00;6.20;;;2.97;;
20713;SDS011;10518;50.742;4.226;2023-04-15T05:47:29;9.90;;;2.93;;
20713;SDS011;10518;50.742;4.226;2023-04-15T05:49:55;4.87;;;2.87;;
20713;SDS011;10518;50.742;4.226;2023-04-15T05:52:20;8.30;;;3.57;;
20713;SDS011;10518;50.742;4.226;2023-04-15T05:54:46;8.17;;;3.73;;
20713;SDS011;10518;50.742;4.226;2023-04-15T05:57:11;6.93;;;3.63;;
20713;SDS011;10518;50.742;4.226;2023-04-15T05:59:37;7.20;;;3.67;;
20713;SDS011;10518;50.742;4.226;2023-04-15T06:02:03;6.80;;;3.83;;
20713;SDS011;10518;50.742;4.226;2023-04-15T06:04:28;7.40;;;3.57;;
20713;SDS011;10518;50.742;4.226;2023-04-15T06:06:54;9.50;;;3.07;;
20713;SDS011;10518;50.742;4.226;2023-04-15T06:09:20;5.50;;;3.67;;
20713;SDS011;10518;50.742;4.226;2023-04-15T06:11:45;8.40;;;3.27;;
20713;SDS011;10518;50.742;4.226;2023-04-15T06:14:11;8.03;;;3.20;;
20713;SDS011;10518;50.742;4.226;2023-04-15T06:16:36;6.17;;;3.37;;
20713;SDS011;10518;50.742;4.226;2023-04-15T06:19:02;5.50;;;3.40;;
20713;SDS011;10518;50.742;4.226;2023-04-15T06:21:28;5.90;;;3.83;;
20713;SDS011;10518;50.742;4.226;2023-04-15T06:23:55;7.07;;;3.60;;
20713;SDS011;10518;50.742;4.226;2023-04-15T06:26:20;7.00;;;3.87;;
20713;SDS011;10518;50.742;4.226;2023-04-15T06:28:46;5.77;;;3.47;;
20713;SDS011;10518;50.742;4.226;2023-04-15T06:31:12;6.13;;;3.73;;
20713;SDS011;10518;50.742;4.226;2023-04-15T06:33:37;8.67;;;3.23;;
20713;SDS011;10518;50.742;4.226;2023-04-15T06:36:03;4.33;;;3.10;;
20713;SDS011;10518;50.742;4.226;2023-04-15T06:38:29;7.13;;;3.10;;
20713;SDS011;10518;50.742;4.226;2023-04-15T06:40:55;5.20;;;2.83;;
20713;SDS011;10518;50.742;4.226;2023-04-15T06:43:20;6.27;;;3.57;;
20713;SDS011;10518;50.742;4.226;2023-04-15T06:45:46;4.50;;;2.90;;
20713;SDS011;10518;50.742;4.226;2023-04-15T06:48:11;10.23;;;3.67;;
20713;SDS011;10518;50.742;4.226;2023-04-15T06:50:37;4.73;;;2.67;;
20713;SDS011;10518;50.742;4.226;2023-04-15T06:53:03;3.20;;;2.37;;
20713;SDS011;10518;50.742;4.226;2023-04-15T06:55:28;5.87;;;2.87;;
20713;SDS011;10518;50.742;4.226;2023-04-15T06:57:55;4.63;;;2.90;;
20713;SDS011;10518;50.742;4.226;2023-04-15T07:00:21;6.00;;;3.17;;
20713;SDS011;10518;50.742;4.226;2023-04-15T07:02:46;6.27;;;3.67;;
20713;SDS011;10518;50.742;4.226;2023-04-15T07:05:12;6.93;;;3.63;;
20713;SDS011;10518;50.742;4.226;2023-04-15T07:07:38;6.50;;;3.07;;
20713;SDS011;10518;50.742;4.226;2023-04-15T07:10:04;8.07;;;3.10;;
20713;SDS011;10518;50.742;4.226;2023-04-15T07:12:30;8.53;;;3.37;;
20713;SDS011;10518;50.742;4.226;2023-04-15T07:14:55;5.17;;;3.00;;
20713;SDS011;10518;50.742;4.226;2023-04-15T07:17:21;8.07;;;3.13;;
20713;SDS011;10518;50.742;4.226;2023-04-15T07:19:46;5.77;;;3.30;;
20713;SDS011;10518;50.742;4.226;2023-04-15T07:22:12;3.45;;;2.60;;
20713;SDS011;10518;50.742;4.226;2023-04-15T07:24:38;6.85;;;2.95;;
20713;SDS011;10518;50.742;4.226;2023-04-15T07:27:03;8.35;;;3.20;;
20713;SDS011;10518;50.742;4.226;2023-04-15T07:29:29;5.82;;;3.42;;
20713;SDS011;10518;50.742;4.226;2023-04-15T07:31:55;6.43;;;2.90;;
20713;SDS011;10518;50.742;4.226;2023-04-15T07:34:21;6.55;;;3.25;;
20713;SDS011;10518;50.742;4.226;2023-04-15T07:36:47;4.83;;;3.27;;
20713;SDS011;10518;50.742;4.226;2023-04-15T07:39:16;6.32;;;3.03;;
20713;SDS011;10518;50.742;4.226;2023-04-15T07:41:42;7.30;;;2.65;;
20713;SDS011;10518;50.742;4.226;2023-04-15T07:44:07;5.23;;;2.67;;
20713;SDS011;10518;50.742;4.226;2023-04-15T07:46:33;7.30;;;2.80;;
20713;SDS011;10518;50.742;4.226;2023-04-15T07:48:59;5.28;;;3.03;;
20713;SDS011;10518;50.742;4.226;2023-04-15T07:51:24;3.85;;;2.78;;
20713;SDS011;10518;50.742;4.226;2023-04-15T07:53:50;4.53;;;2.72;;
20713;SDS011;10518;50.742;4.226;2023-04-15T07:56:15;9.40;;;2.95;;
20713;SDS011;10518;50.742;4.226;2023-04-15T07:58:41;7.53;;;2.40;;
20713;SDS011;10518;50.742;4.226;2023-04-15T08:01:07;3.28;;;2.22;;
20713;SDS011;10518;50.742;4.226;2023-04-15T08:03:33;5.03;;;2.78;;
20713;SDS011;10518;50.742;4.226;2023-04-15T08:05:58;4.32;;;2.38;;
20713;SDS011;10518;50.742;4.226;2023-04-15T08:08:24;3.67;;;2.28;;
20713;SDS011;10518;50.742;4.226;2023-04-15T08:10:50;4.97;;;2.05;;
20713;SDS011;10518;50.742;4.226;2023-04-15T08:13:16;4.73;;;2.70;;
20713;SDS011;10518;50.742;4.226;2023-04-15T08:15:41;3.80;;;2.65;;
20713;SDS011;10518;50.742;4.226;2023-04-15T08:18:07;4.57;;;2.63;;
20713;SDS011;10518;50.742;4.226;2023-04-15T08:20:33;7.27;;;3.17;;
20713;SDS011;10518;50.742;4.226;2023-04-15T08:22:58;11.80;;;3.30;;
20713;SDS011;10518;50.742;4.226;2023-04-15T08:25:24;7.63;;;3.40;;
20713;SDS011;10518;50.742;4.226;2023-04-15T08:27:49;5.77;;;2.80;;
20713;SDS011;10518;50.742;4.226;2023-04-15T08:30:15;4.83;;;3.13;;
20713;SDS011;10518;50.742;4.226;2023-04-15T08:32:41;9.70;;;3.53;;
20713;SDS011;10518;50.742;4.226;2023-04-15T08:35:10;5.13;;;2.97;;
20713;SDS011;10518;50.742;4.226;2023-04-15T08:37:36;6.13;;;3.63;;
20713;SDS011;10518;50.742;4.226;2023-04-15T08:40:02;7.37;;;3.77;;
20713;SDS011;10518;50.742;4.226;2023-04-15T08:42:43;4.93;;;3.13;;
20713;SDS011;10518;50.742;4.226;2023-04-15T08:45:14;11.37;;;3.60;;
20713;SDS011;10518;50.742;4.226;2023-04-15T08:47:42;7.03;;;3.37;;
20713;SDS011;10518;50.742;4.226;2023-04-15T08:50:09;6.07;;;3.40;;
20713;SDS011;10518;50.742;4.226;2023-04-15T08:52:35;5.57;;;4.20;;
20713;SDS011;10518;50.742;4.226;2023-04-15T08:55:01;7.28;;;3.13;;
20713;SDS011;10518;50.742;4.226;2023-04-15T08:57:28;11.25;;;3.30;;
20713;SDS011;10518;50.742;4.226;2023-04-15T08:59:55;9.85;;;3.83;;
20713;SDS011;10518;50.742;4.226;2023-04-15T09:02:21;5.78;;;3.35;;
20713;SDS011;10518;50.742;4.226;2023-04-15T09:04:48;11.30;;;4.40;;
20713;SDS011;10518;50.742;4.226;2023-04-15T09:07:14;7.55;;;3.67;;
20713;SDS011;10518;50.742;4.226;2023-04-15T09:09:40;8.77;;;3.50;;
20713;SDS011;10518;50.742;4.226;2023-04-15T09:12:06;4.72;;;3.20;;
20713;SDS011;10518;50.742;4.226;2023-04-15T09:14:32;8.23;;;3.75;;
20713;SDS011;10518;50.742;4.226;2023-04-15T09:16:59;8.18;;;3.78;;
20713;SDS011;10518;50.742;4.226;2023-04-15T09:19:28;5.80;;;3.65;;
20713;SDS011;10518;50.742;4.226;2023-04-15T09:21:55;11.48;;;3.97;;
20713;SDS011;10518;50.742;4.226;2023-04-15T09:24:23;5.65;;;3.70;;
20713;SDS011;10518;50.742;4.226;2023-04-15T09:26:52;9.25;;;4.05;;
20713;SDS011;10518;50.742;4.226;2023-04-15T09:29:19;13.13;;;4.93;;
20713;SDS011;10518;50.742;4.226;2023-04-15T09:31:48;13.02;;;3.90;;
20713;SDS011;10518;50.742;4.226;2023-04-15T09:34:13;8.52;;;4.18;;
20713;SDS011;10518;50.742;4.226;2023-04-15T09:39:21;13.07;;;5.20;;
20713;SDS011;10518;50.742;4.226;2023-04-15T09:41:47;9.77;;;4.18;;
20713;SDS011;10518;50.742;4.226;2023-04-15T09:44:29;7.53;;;3.72;;
20713;SDS011;10518;50.742;4.226;2023-04-15T09:46:55;7.07;;;3.83;;
20713;SDS011;10518;50.742;4.226;2023-04-15T09:49:21;7.35;;;4.47;;
20713;SDS011;10518;50.742;4.226;2023-04-15T09:51:47;7.80;;;4.00;;
20713;SDS011;10518;50.742;4.226;2023-04-15T09:54:14;7.80;;;4.10;;
20713;SDS011;10518;50.742;4.226;2023-04-15T09:56:44;9.88;;;3.97;;
20713;SDS011;10518;50.742;4.226;2023-04-15T09:59:11;7.15;;;4.03;;
20713;SDS011;10518;50.742;4.226;2023-04-15T10:01:37;6.80;;;3.92;;
20713;SDS011;10518;50.742;4.226;2023-04-15T10:04:05;8.45;;;3.60;;
20713;SDS011;10518;50.742;4.226;2023-04-15T10:06:31;7.10;;;3.00;;
20713;SDS011;10518;50.742;4.226;2023-04-15T10:08:57;8.95;;;2.75;;
20713;SDS011;10518;50.742;4.226;2023-04-15T10:11:25;5.32;;;2.75;;
20713;SDS011;10518;50.742;4.226;2023-04-15T10:13:53;3.15;;;2.00;;
20713;SDS011;10518;50.742;4.226;2023-04-15T10:16:20;3.92;;;2.28;;
20713;SDS011;10518;50.742;4.226;2023-04-15T10:18:57;5.35;;;2.58;;
20713;SDS011;10518;50.742;4.226;2023-04-15T10:21:26;6.97;;;3.72;;
20713;SDS011;10518;50.742;4.226;2023-04-15T10:23:54;5.85;;;2.60;;
20713;SDS011;10518;50.742;4.226;2023-04-15T10:26:21;5.22;;;2.45;;
20713;SDS011;10518;50.742;4.226;2023-04-15T10:28:46;3.45;;;2.17;;
20713;SDS011;10518;50.742;4.226;2023-04-15T10:31:13;5.03;;;2.20;;
20713;SDS011;10518;50.742;4.226;2023-04-15T10:33:39;3.10;;;2.28;;
20713;SDS011;10518;50.742;4.226;2023-04-15T10:36:06;2.95;;;2.20;;
20713;SDS011;10518;50.742;4.226;2023-04-15T10:43:51;8.32;;;2.35;;
20713;SDS011;10518;50.742;4.226;2023-04-15T10:46:34;5.35;;;2.65;;
20713;SDS011;10518;50.742;4.226;2023-04-15T10:49:09;4.55;;;2.72;;
20713;SDS011;10518;50.742;4.226;2023-04-15T10:51:37;5.22;;;3.28;;
20713;SDS011;10518;50.742;4.226;2023-04-15T10:56:51;3.95;;;2.75;;
20713;SDS011;10518;50.742;4.226;2023-04-15T10:59:29;7.40;;;2.85;;
20713;SDS011;10518;50.742;4.226;2023-04-15T11:01:56;4.70;;;2.13;;
20713;SDS011;10518;50.742;4.226;2023-04-15T11:07:38;3.78;;;2.75;;
20713;SDS011;10518;50.742;4.226;2023-04-15T11:12:41;2.72;;;1.60;;
20713;SDS011;10518;50.742;4.226;2023-04-15T11:20:45;2.47;;;1.85;;
20713;SDS011;10518;50.742;4.226;2023-04-15T11:23:12;2.72;;;1.80;;
20713;SDS011;10518;50.742;4.226;2023-04-15T11:25:39;3.45;;;1.90;;
20713;SDS011;10518;50.742;4.226;2023-04-15T11:28:05;5.28;;;1.98;;
20713;SDS011;10518;50.742;4.226;2023-04-15T11:30:34;2.90;;;1.90;;
20713;SDS011;10518;50.742;4.226;2023-04-15T11:33:03;3.72;;;1.63;;
20713;SDS011;10518;50.742;4.226;2023-04-15T11:35:30;2.03;;;1.67;;
20713;SDS011;10518;50.742;4.226;2023-04-15T11:37:56;3.17;;;1.70;;
20713;SDS011;10518;50.742;4.226;2023-04-15T11:40:23;6.93;;;2.03;;
20713;SDS011;10518;50.742;4.226;2023-04-15T11:45:54;3.15;;;1.63;;
20713;SDS011;10518;50.742;4.226;2023-04-15T11:48:22;2.05;;;1.50;;
20713;SDS011;10518;50.742;4.226;2023-04-15T11:50:54;4.82;;;1.70;;
20713;SDS011;10518;50.742;4.226;2023-04-15T11:53:22;2.67;;;1.20;;
20713;SDS011;10518;50.742;4.226;2023-04-15T11:55:49;4.68;;;1.95;;
20713;SDS011;10518;50.742;4.226;2023-04-15T11:58:23;2.55;;;1.45;;
20713;SDS011;10518;50.742;4.226;2023-04-15T12:00:54;5.22;;;1.85;;
20713;SDS011;10518;50.742;4.226;2023-04-15T12:06:05;1.75;;;1.35;;
20713;SDS011;10518;50.742;4.226;2023-04-15T12:14:10;1.27;;;1.02;;
20713;SDS011;10518;50.742;4.226;2023-04-15T12:19:28;3.80;;;1.10;;
20713;SDS011;10518;50.742;4.226;2023-04-15T12:22:11;2.10;;;1.13;;
20713;SDS011;10518;50.742;4.226;2023-04-15T12:24:38;1.90;;;1.17;;
20713;SDS011;10518;50.742;4.226;2023-04-15T12:27:08;1.30;;;1.10;;
20713;SDS011;10518;50.742;4.226;2023-04-15T12:29:36;1.30;;;1.05;;
20713;SDS011;10518;50.742;4.226;2023-04-15T12:32:07;1.27;;;1.05;;
20713;SDS011;10518;50.742;4.226;2023-04-15T12:34:38;1.50;;;1.08;;
20713;SDS011;10518;50.742;4.226;2023-04-15T12:37:05;1.35;;;1.00;;
20713;SDS011;10518;50.742;4.226;2023-04-15T12:39:40;3.47;;;1.50;;
20713;SDS011;10518;50.742;4.226;2023-04-15T12:42:07;2.58;;;1.40;;
20713;SDS011;10518;50.742;4.226;2023-04-15T12:44:34;2.47;;;1.52;;
20713;SDS011;10518;50.742;4.226;2023-04-15T12:47:00;3.88;;;1.50;;
20713;SDS011;10518;50.742;4.226;2023-04-15T12:49:26;0.77;;;0.70;;
20713;SDS011;10518;50.742;4.226;2023-04-15T12:51:52;1.25;;;0.95;;
20713;SDS011;10518;50.742;4.226;2023-04-15T12:54:23;1.58;;;1.08;;
20713;SDS011;10518;50.742;4.226;2023-04-15T12:56:49;1.92;;;1.23;;
20713;SDS011;10518;50.742;4.226;2023-04-15T12:59:16;1.25;;;0.95;;
20713;SDS011;10518;50.742;4.226;2023-04-15T13:01:43;2.20;;;1.55;;
20713;SDS011;10518;50.742;4.226;2023-04-15T13:04:09;2.03;;;1.40;;
20713;SDS011;10518;50.742;4.226;2023-04-15T13:06:35;1.85;;;1.30;;
20713;SDS011;10518;50.742;4.226;2023-04-15T13:09:01;1.90;;;1.20;;
20713;SDS011;10518;50.742;4.226;2023-04-15T13:11:27;1.80;;;1.20;;
20713;SDS011;10518;50.742;4.226;2023-04-15T13:13:55;3.50;;;1.63;;
20713;SDS011;10518;50.742;4.226;2023-04-15T13:16:22;1.95;;;1.27;;
20713;SDS011;10518;50.742;4.226;2023-04-15T13:18:48;2.08;;;1.10;;
20713;SDS011;10518;50.742;4.226;2023-04-15T13:21:14;1.73;;;1.23;;
20713;SDS011;10518;50.742;4.226;2023-04-15T13:23:41;1.73;;;1.08;;
20713;SDS011;10518;50.742;4.226;2023-04-15T13:26:06;1.85;;;1.50;;
20713;SDS011;10518;50.742;4.226;2023-04-15T13:28:32;1.85;;;1.30;;
20713;SDS011;10518;50.742;4.226;2023-04-15T13:30:58;2.53;;;1.40;;
20713;SDS011;10518;50.742;4.226;2023-04-15T13:33:24;3.15;;;1.30;;
20713;SDS011;10518;50.742;4.226;2023-04-15T13:35:50;3.03;;;1.35;;
20713;SDS011;10518;50.742;4.226;2023-04-15T13:38:16;1.92;;;1.35;;
20713;SDS011;10518;50.742;4.226;2023-04-15T13:40:41;2.67;;;1.48;;
20713;SDS011;10518;50.742;4.226;2023-04-15T13:43:07;1.77;;;1.10;;
20713;SDS011;10518;50.742;4.226;2023-04-15T13:45:33;2.80;;;1.50;;
20713;SDS011;10518;50.742;4.226;2023-04-15T13:47:58;1.92;;;1.33;;
20713;SDS011;10518;50.742;4.226;2023-04-15T13:50:24;4.65;;;1.40;;
20713;SDS011;10518;50.742;4.226;2023-04-15T13:52:50;2.97;;;1.17;;
20713;SDS011;10518;50.742;4.226;2023-04-15T13:55:15;4.20;;;1.50;;
20713;SDS011;10518;50.742;4.226;2023-04-15T13:57:41;1.05;;;0.80;;
20713;SDS011;10518;50.742;4.226;2023-04-15T14:00:07;4.32;;;2.17;;
20713;SDS011;10518;50.742;4.226;2023-04-15T14:02:33;1.40;;;1.10;;
20713;SDS011;10518;50.742;4.226;2023-04-15T14:04:58;3.38;;;1.60;;
20713;SDS011;10518;50.742;4.226;2023-04-15T14:07:24;4.18;;;1.98;;
20713;SDS011;10518;50.742;4.226;2023-04-15T14:09:49;2.35;;;1.45;;
20713;SDS011;10518;50.742;4.226;2023-04-15T14:12:15;2.15;;;1.35;;
20713;SDS011;10518;50.742;4.226;2023-04-15T14:14:40;2.17;;;1.40;;
20713;SDS011;10518;50.742;4.226;2023-04-15T14:17:06;2.83;;;1.60;;
20713;SDS011;10518;50.742;4.226;2023-04-15T14:19:32;2.88;;;1.73;;
20713;SDS011;10518;50.742;4.226;2023-04-15T14:21:59;3.42;;;1.67;;
20713;SDS011;10518;50.742;4.226;2023-04-15T14:24:25;2.35;;;1.73;;
20713;SDS011;10518;50.742;4.226;2023-04-15T14:26:51;2.40;;;1.20;;
20713;SDS011;10518;50.742;4.226;2023-04-15T14:29:17;3.28;;;1.98;;
20713;SDS011;10518;50.742;4.226;2023-04-15T14:31:42;1.58;;;1.13;;
20713;SDS011;10518;50.742;4.226;2023-04-15T14:34:09;2.47;;;1.30;;
20713;SDS011;10518;50.742;4.226;2023-04-15T14:36:35;2.05;;;1.20;;
20713;SDS011;10518;50.742;4.226;2023-04-15T14:39:00;3.28;;;1.70;;
20713;SDS011;10518;50.742;4.226;2023-04-15T14:41:27;6.30;;;1.48;;
20713;SDS011;10518;50.742;4.226;2023-04-15T14:43:54;2.55;;;1.10;;
20713;SDS011;10518;50.742;4.226;2023-04-15T14:46:20;1.63;;;1.25;;
20713;SDS011;10518;50.742;4.226;2023-04-15T14:48:46;2.55;;;1.48;;
20713;SDS011;10518;50.742;4.226;2023-04-15T14:51:12;4.55;;;1.10;;
20713;SDS011;10518;50.742;4.226;2023-04-15T14:53:38;2.58;;;1.30;;
20713;SDS011;10518;50.742;4.226;2023-04-15T14:56:03;1.45;;;1.00;;
20713;SDS011;10518;50.742;4.226;2023-04-15T14:58:29;1.20;;;0.90;;
20713;SDS011;10518;50.742;4.226;2023-04-15T15:00:55;1.48;;;1.10;;
20713;SDS011;10518;50.742;4.226;2023-04-15T15:03:20;2.05;;;1.10;;
20713;SDS011;10518;50.742;4.226;2023-04-15T15:05:46;2.97;;;1.20;;
20713;SDS011;10518;50.742;4.226;2023-04-15T15:08:12;4.90;;;1.30;;
20713;SDS011;10518;50.742;4.226;2023-04-15T15:10:38;1.98;;;1.17;;
20713;SDS011;10518;50.742;4.226;2023-04-15T15:13:05;1.90;;;1.33;;
20713;SDS011;10518;50.742;4.226;2023-04-15T15:15:32;1.65;;;1.35;;
20713;SDS011;10518;50.742;4.226;2023-04-15T15:17:59;3.70;;;1.30;;
20713;SDS011;10518;50.742;4.226;2023-04-15T15:20:25;1.50;;;1.10;;